Alum Bridge, West Virginia
Current Conditions -  °F | °C
As of 2:15 PM on Saturday 25 Oct 2014 (Local Time) from KW22 Reporting Station
Few Clouds Few Clouds  
Wind Chill: 63°   Ceiling: Unl
Heat Index: 63°   Visibility: 9mi
Dew Point: 46°   Wind: 10mph
Humidity: 55%   Direction: 260°W
Pressure: 29.94"   Gusts: NA
Location:  39.04°N, 80.66°W
Report Text: KW22 251815Z AUTO 26009KT 9SM FEW065 17/08 A2994 RMK AO2
Loading
Personal Weather Stations






























Interactive Weather Map
Tropical Storm Tracking
New forecast layout! Learn more

10-Day Weather Forecast

Advertisements
Track Severe Weather on mobile